createdAt,value
2018-02-10T00:00:10.023Z,89.16
2018-02-10T00:01:10.009Z,90.01
2018-02-10T00:02:09.985Z,90.20
2018-02-10T00:03:09.967Z,89.82
2018-02-10T00:04:09.948Z,90.11
2018-02-10T00:05:09.930Z,89.87
2018-02-10T00:06:09.912Z,90.30
2018-02-10T00:07:09.892Z,89.87
2018-02-10T00:08:09.873Z,90.34
2018-02-10T00:09:09.854Z,90.53
2018-02-10T00:10:09.841Z,91.20
2018-02-10T00:11:09.820Z,91.01
2018-02-10T00:12:09.807Z,91.20
2018-02-10T00:13:09.790Z,90.44
2018-02-10T00:14:09.762Z,91.01
2018-02-10T00:15:09.745Z,90.82
2018-02-10T00:16:09.727Z,91.20
2018-02-10T00:17:09.741Z,91.58
2018-02-10T00:18:09.686Z,92.71
2018-02-10T00:19:09.667Z,91.91
2018-02-10T00:20:09.656Z,91.62
2018-02-10T00:21:09.635Z,91.81
2018-02-10T00:22:09.619Z,91.72
2018-02-10T00:23:09.595Z,91.53
2018-02-10T00:24:09.578Z,89.82
2018-02-10T00:25:09.559Z,90.11
2018-02-10T00:26:09.535Z,90.01
2018-02-10T00:27:09.523Z,90.20
2018-02-10T00:28:09.500Z,89.82
2018-02-10T00:29:09.481Z,90.67
2018-02-10T00:30:09.468Z,89.97
2018-02-10T00:31:09.444Z,89.69
2018-02-10T00:32:09.426Z,89.73
2018-02-10T00:33:09.411Z,89.97
2018-02-10T00:34:09.390Z,90.53
2018-02-10T00:35:09.373Z,90.72
2018-02-10T00:36:09.360Z,90.63
2018-02-10T00:37:09.330Z,90.53
2018-02-10T00:38:09.311Z,90.16
2018-02-10T00:39:09.293Z,89.87
2018-02-10T00:40:09.275Z,90.06
2018-02-10T00:41:09.264Z,90.34
2018-02-10T00:42:09.236Z,90.34
2018-02-10T00:43:09.224Z,89.87
2018-02-10T00:44:09.201Z,90.06
2018-02-10T00:45:09.184Z,90.34
2018-02-10T00:46:09.161Z,90.25
2018-02-10T00:47:09.144Z,90.44
2018-02-10T00:48:09.124Z,90.44
2018-02-10T00:49:09.107Z,91.01
2018-02-10T00:50:09.090Z,90.53
2018-02-10T00:51:09.069Z,91.20
2018-02-10T00:52:09.049Z,90.96
2018-02-10T00:53:09.031Z,91.53
2018-02-10T00:54:09.012Z,91.05
2018-02-10T00:55:08.992Z,89.63
2018-02-10T00:56:08.977Z,90.11
2018-02-10T00:57:08.955Z,89.82
2018-02-10T00:58:08.936Z,89.73
2018-02-10T00:59:08.920Z,89.97
2018-02-10T01:00:08.905Z,89.82
2018-02-10T01:01:08.891Z,88.97
2018-02-10T01:02:08.863Z,88.49
2018-02-10T01:03:08.848Z,88.12
2018-02-10T01:04:08.831Z,89.16
2018-02-10T01:05:08.806Z,89.16
2018-02-10T01:06:08.829Z,88.87
2018-02-10T01:07:08.774Z,89.25
2018-02-10T01:08:08.750Z,89.35
2018-02-10T01:09:08.736Z,89.54
2018-02-10T01:10:08.713Z,90.01
2018-02-10T01:11:08.694Z,89.63
2018-02-10T01:12:08.675Z,89.40
2018-02-10T01:13:08.657Z,89.44
2018-02-10T01:14:08.641Z,89.54
2018-02-10T01:15:08.618Z,89.87
2018-02-10T01:16:08.607Z,90.11
2018-02-10T01:17:08.588Z,89.16
2018-02-10T01:18:08.569Z,89.82
2018-02-10T01:19:08.544Z,89.82
2018-02-10T01:20:08.531Z,89.44
2018-02-10T01:21:08.507Z,89.44
2018-02-10T01:22:08.489Z,89.35
2018-02-10T01:23:08.471Z,90.06
2018-02-10T01:24:08.450Z,90.30
2018-02-10T01:25:08.439Z,89.82
2018-02-10T01:26:08.413Z,89.54
2018-02-10T01:27:08.396Z,89.82
2018-02-10T01:28:08.385Z,90.01
2018-02-10T01:29:08.361Z,89.63
2018-02-10T01:30:08.338Z,90.01
2018-02-10T01:31:08.324Z,90.11
2018-02-10T01:32:08.303Z,90.01
2018-02-10T01:33:08.291Z,90.48
2018-02-10T01:34:08.267Z,89.92
2018-02-10T01:35:08.254Z,90.86
2018-02-10T01:36:08.236Z,89.92
2018-02-10T01:37:08.211Z,89.44
2018-02-10T01:38:08.202Z,90.11
2018-02-10T01:39:08.181Z,89.82
2018-02-10T01:40:08.157Z,89.54
2018-02-10T01:41:08.137Z,89.73
2018-02-10T01:42:08.118Z,89.25
2018-02-10T01:43:08.101Z,89.16
2018-02-10T01:44:08.083Z,89.54
2018-02-10T01:45:08.071Z,89.73
2018-02-10T01:46:08.058Z,90.01
2018-02-10T01:47:08.026Z,89.63
2018-02-10T01:48:08.010Z,89.82
2018-02-10T01:49:07.996Z,90.11
2018-02-10T01:50:07.974Z,89.82
2018-02-10T01:51:07.955Z,90.01
2018-02-10T01:52:07.935Z,90.11
2018-02-10T01:53:07.918Z,89.54
2018-02-10T01:54:07.900Z,90.86
2018-02-10T01:55:07.880Z,89.73
2018-02-10T01:56:07.863Z,88.97
2018-02-10T01:57:07.843Z,89.06
2018-02-10T01:58:07.826Z,89.35
2018-02-10T01:59:07.813Z,89.92
2018-02-10T02:00:07.792Z,88.87
2018-02-10T02:01:07.779Z,88.12
2018-02-10T02:02:07.752Z,88.40
2018-02-10T02:03:07.740Z,88.59
2018-02-10T02:04:07.714Z,88.12
2018-02-10T02:05:07.697Z,88.40
2018-02-10T02:06:07.680Z,88.68
2018-02-10T02:07:07.662Z,89.25
2018-02-10T02:08:07.642Z,88.59
2018-02-10T02:09:07.624Z,88.49
2018-02-10T02:10:07.603Z,88.40
2018-02-10T02:11:07.585Z,88.68
2018-02-10T02:12:07.573Z,88.87
2018-02-10T02:13:07.555Z,89.06
2018-02-10T02:14:07.533Z,89.16
2018-02-10T02:15:07.512Z,89.35
2018-02-10T02:16:07.502Z,89.63
2018-02-10T02:17:07.482Z,89.54
2018-02-10T02:18:07.456Z,89.92
2018-02-10T02:19:07.438Z,90.01
2018-02-10T02:20:07.421Z,89.82
2018-02-10T02:21:07.402Z,90.11
2018-02-10T02:22:07.388Z,89.44
2018-02-10T02:23:07.371Z,89.44
2018-02-10T02:24:07.348Z,89.44
2018-02-10T02:25:07.336Z,89.82
2018-02-10T02:26:07.311Z,89.82
2018-02-10T02:27:07.297Z,89.82
2018-02-10T02:28:07.276Z,89.73
2018-02-10T02:29:07.261Z,89.82
2018-02-10T02:30:07.239Z,90.20
2018-02-10T02:31:07.221Z,89.92
2018-02-10T02:32:07.206Z,89.82
2018-02-10T02:33:07.189Z,89.82
2018-02-10T02:34:07.164Z,89.54
2018-02-10T02:35:07.148Z,88.78
2018-02-10T02:36:07.135Z,89.25
2018-02-10T02:37:07.118Z,89.16
2018-02-10T02:38:07.091Z,89.16
2018-02-10T02:39:07.077Z,89.63
2018-02-10T02:40:07.055Z,89.54
2018-02-10T02:41:07.039Z,89.82
2018-02-10T02:42:07.020Z,89.44
2018-02-10T02:43:07.000Z,89.82
2018-02-10T02:44:06.987Z,89.06
2018-02-10T02:45:06.974Z,89.73
2018-02-10T02:46:06.946Z,89.49
2018-02-10T02:47:06.928Z,89.68
2018-02-10T02:48:06.908Z,89.77
2018-02-10T02:49:06.896Z,89.16
2018-02-10T02:50:06.871Z,89.11
2018-02-10T02:51:06.855Z,89.11
2018-02-10T02:52:06.836Z,89.01
2018-02-10T02:53:06.821Z,89.63
2018-02-10T02:54:06.804Z,89.73
2018-02-10T02:55:06.789Z,89.54
2018-02-10T02:56:06.762Z,89.35
2018-02-10T02:57:06.748Z,89.35
2018-02-10T02:58:06.725Z,90.01
2018-02-10T02:59:06.706Z,90.11
2018-02-10T03:00:06.695Z,91.24
2018-02-10T03:01:06.669Z,90.30
2018-02-10T03:02:06.649Z,91.34
2018-02-10T03:03:06.634Z,90.30
2018-02-10T03:04:06.616Z,90.58
2018-02-10T03:05:06.595Z,90.39
2018-02-10T03:06:06.577Z,90.06
2018-02-10T03:07:06.562Z,89.77
2018-02-10T03:08:06.538Z,89.16
2018-02-10T03:09:06.525Z,89.54
2018-02-10T03:10:06.508Z,89.63
2018-02-10T03:11:06.485Z,89.87
2018-02-10T03:12:06.465Z,89.63
2018-02-10T03:13:06.456Z,89.06
2018-02-10T03:14:06.434Z,89.82
2018-02-10T03:15:06.419Z,89.54
2018-02-10T03:16:06.395Z,89.92
2018-02-10T03:17:06.374Z,89.73
2018-02-10T03:18:06.358Z,90.01
2018-02-10T03:19:06.336Z,89.92
2018-02-10T03:20:06.324Z,90.01
2018-02-10T03:21:06.307Z,91.05
2018-02-10T03:22:06.282Z,89.96
2018-02-10T03:23:06.262Z,89.73
2018-02-10T03:24:06.246Z,90.91
2018-02-10T03:25:06.230Z,91.76
2018-02-10T03:26:06.207Z,91.10
2018-02-10T03:27:06.196Z,90.53
2018-02-10T03:28:06.175Z,90.77
2018-02-10T03:29:06.164Z,91.53
2018-02-10T03:30:06.144Z,91.62
2018-02-10T03:31:06.118Z,92.00
2018-02-10T03:32:06.096Z,91.72
2018-02-10T03:33:06.077Z,92.85
2018-02-10T03:34:06.059Z,91.34
2018-02-10T03:35:06.039Z,91.91
2018-02-10T03:36:06.023Z,92.19
2018-02-10T03:37:06.006Z,91.72
2018-02-10T03:38:05.985Z,92.29
2018-02-10T03:39:05.972Z,91.72
2018-02-10T03:40:05.946Z,92.00
2018-02-10T03:41:05.930Z,92.85
2018-02-10T03:42:05.914Z,91.72
2018-02-10T03:43:05.893Z,91.72
2018-02-10T03:44:05.873Z,91.72
2018-02-10T03:45:05.853Z,91.53
2018-02-10T03:46:05.841Z,92.57
2018-02-10T03:47:05.821Z,92.10
2018-02-10T03:48:05.797Z,91.53
2018-02-10T03:49:05.782Z,92.85
2018-02-10T03:50:05.759Z,91.81
2018-02-10T03:51:05.743Z,91.81
2018-02-10T03:52:05.720Z,92.00
2018-02-10T03:53:05.702Z,92.19
2018-02-10T03:54:05.684Z,91.91
2018-02-10T03:55:05.676Z,92.19
2018-02-10T03:56:05.645Z,92.94
2018-02-10T03:57:05.628Z,92.66
2018-02-10T03:58:05.607Z,93.32
2018-02-10T03:59:05.590Z,93.04
2018-02-10T04:00:05.571Z,92.76
2018-02-10T04:01:05.554Z,92.94
2018-02-10T04:02:05.534Z,92.10
2018-02-10T04:03:05.516Z,91.81
2018-02-10T04:04:05.495Z,92.00
2018-02-10T04:05:05.484Z,92.19
2018-02-10T04:06:05.461Z,92.47
2018-02-10T04:07:05.441Z,92.57
2018-02-10T04:08:05.421Z,92.66
2018-02-10T04:09:05.405Z,92.29
2018-02-10T04:10:05.383Z,92.76
2018-02-10T04:11:05.366Z,92.76
2018-02-10T04:12:05.355Z,92.85
2018-02-10T04:13:05.327Z,92.66
2018-02-10T04:14:05.309Z,93.04
2018-02-10T04:15:05.302Z,92.47
2018-02-10T04:16:05.272Z,92.10
2018-02-10T04:17:05.256Z,92.57
2018-02-10T04:18:05.236Z,92.76
2018-02-10T04:19:05.230Z,93.32
2018-02-10T04:20:05.202Z,92.57
2018-02-10T04:21:05.179Z,92.76
2018-02-10T04:22:05.159Z,92.76
2018-02-10T04:23:05.142Z,92.00
2018-02-10T04:24:05.126Z,92.94
2018-02-10T04:25:05.107Z,92.66
2018-02-10T04:26:05.088Z,92.19
2018-02-10T04:27:05.067Z,92.57
2018-02-10T04:28:05.050Z,92.19
2018-02-10T04:29:05.042Z,91.72
2018-02-10T04:30:05.013Z,92.10
2018-02-10T04:31:04.998Z,92.85
2018-02-10T04:32:04.984Z,92.66
2018-02-10T04:33:04.958Z,91.81
2018-02-10T04:34:04.939Z,91.43
2018-02-10T04:35:04.921Z,90.96
2018-02-10T04:36:04.910Z,92.94
2018-02-10T04:37:04.885Z,91.62
2018-02-10T04:38:04.875Z,90.86
2018-02-10T04:39:04.853Z,90.96
2018-02-10T04:40:04.828Z,91.15
2018-02-10T04:41:04.811Z,91.81
2018-02-10T04:42:04.795Z,91.34
2018-02-10T04:43:04.771Z,92.85
2018-02-10T04:44:04.758Z,92.47
2018-02-10T04:45:04.735Z,90.96
2018-02-10T04:46:04.715Z,88.78
2018-02-10T04:47:04.699Z,90.30
2018-02-10T04:48:04.677Z,91.62
2018-02-10T04:49:04.664Z,92.29
2018-02-10T04:50:04.639Z,91.24
2018-02-10T04:51:04.621Z,91.53
2018-02-10T04:52:04.602Z,92.94
2018-02-10T04:53:04.584Z,93.70
2018-02-10T04:54:04.571Z,90.77
2018-02-10T04:55:04.551Z,90.48
2018-02-10T04:56:04.528Z,91.81
2018-02-10T04:57:04.514Z,91.62
2018-02-10T04:58:04.486Z,92.57
2018-02-10T04:59:04.469Z,91.53
2018-02-10T05:00:04.452Z,91.15
2018-02-10T05:01:04.431Z,92.85
2018-02-10T05:02:04.416Z,93.61
2018-02-10T05:03:04.398Z,91.72
2018-02-10T05:04:04.375Z,90.58
2018-02-10T05:05:04.355Z,91.34
2018-02-10T05:06:04.341Z,90.96
2018-02-10T05:07:04.327Z,90.77
2018-02-10T05:08:04.299Z,91.15
2018-02-10T05:09:04.278Z,91.72
2018-02-10T05:10:04.258Z,91.91
2018-02-10T05:11:04.242Z,91.34
2018-02-10T05:12:04.227Z,92.76
2018-02-10T05:13:04.207Z,92.85
2018-02-10T05:14:04.184Z,93.89
2018-02-10T05:15:04.170Z,92.85
2018-02-10T05:16:04.145Z,91.62
2018-02-10T05:17:04.129Z,92.10
2018-02-10T05:18:04.113Z,91.81
2018-02-10T05:19:04.092Z,92.19
2018-02-10T05:20:04.077Z,93.61
2018-02-10T05:21:04.060Z,93.51
2018-02-10T05:22:04.034Z,92.10
2018-02-10T05:23:04.019Z,91.53
2018-02-10T05:24:03.994Z,91.81
2018-02-10T05:25:03.983Z,93.23
2018-02-10T05:26:03.956Z,93.99
2018-02-10T05:27:03.937Z,91.53
2018-02-10T05:28:03.925Z,90.11
2018-02-10T05:29:03.902Z,90.96
2018-02-10T05:30:03.881Z,93.32
2018-02-10T05:31:03.864Z,92.85
2018-02-10T05:32:03.843Z,92.76
2018-02-10T05:33:03.825Z,91.43
2018-02-10T05:34:03.810Z,91.34
2018-02-10T05:35:03.785Z,93.51
2018-02-10T05:36:03.773Z,92.76
2018-02-10T05:37:03.754Z,92.76
2018-02-10T05:38:03.734Z,92.47
2018-02-10T05:39:03.711Z,93.51
2018-02-10T05:40:03.692Z,93.80
2018-02-10T05:41:03.674Z,94.56
2018-02-10T05:42:03.649Z,95.97
2018-02-10T05:43:03.631Z,93.04
2018-02-10T05:44:03.617Z,89.92
2018-02-10T05:45:03.595Z,91.43
2018-02-10T05:46:03.574Z,90.58
2018-02-10T05:47:03.556Z,90.11
2018-02-10T05:48:03.541Z,91.34
2018-02-10T05:49:03.519Z,91.72
2018-02-10T05:50:03.498Z,91.81
2018-02-10T05:51:03.477Z,92.38
2018-02-10T05:52:03.466Z,91.81
2018-02-10T05:53:03.440Z,92.10
2018-02-10T05:54:03.426Z,91.72
2018-02-10T05:55:03.407Z,93.61
2018-02-10T05:56:03.383Z,92.19
2018-02-10T05:57:03.367Z,92.66
2018-02-10T05:58:03.343Z,92.38
2018-02-10T05:59:03.331Z,93.51
2018-02-10T06:00:03.307Z,94.46
2018-02-10T06:01:03.290Z,93.61
2018-02-10T06:02:03.272Z,92.76
2018-02-10T06:03:03.251Z,93.51
2018-02-10T06:04:03.229Z,92.00
2018-02-10T06:05:03.208Z,92.66
2018-02-10T06:06:03.189Z,92.29
2018-02-10T06:07:03.170Z,91.53
2018-02-10T06:08:03.150Z,92.00
2018-02-10T06:09:03.133Z,92.66
2018-02-10T06:10:03.115Z,93.61
2018-02-10T06:11:03.097Z,92.66
2018-02-10T06:12:03.077Z,91.72
2018-02-10T06:13:03.053Z,90.30
2018-02-10T06:14:03.034Z,90.48
2018-02-10T06:15:03.018Z,90.01
2018-02-10T06:16:02.998Z,91.91
2018-02-10T06:17:02.978Z,92.10
2018-02-10T06:18:02.958Z,92.10
2018-02-10T06:19:02.941Z,89.82
2018-02-10T06:20:02.924Z,90.86
2018-02-10T06:21:02.905Z,90.39
2018-02-10T06:22:02.883Z,90.20
2018-02-10T06:23:02.872Z,87.93
2018-02-10T06:24:02.844Z,87.74
2018-02-10T06:25:02.827Z,90.11
2018-02-10T06:26:02.812Z,90.30
2018-02-10T06:27:02.786Z,90.01
2018-02-10T06:28:02.768Z,88.97
2018-02-10T06:29:02.752Z,90.96
2018-02-10T06:30:02.730Z,91.81
2018-02-10T06:31:02.710Z,91.15
2018-02-10T06:32:02.692Z,91.81
2018-02-10T06:33:02.690Z,90.30
2018-02-10T06:34:02.665Z,88.97
2018-02-10T06:35:02.635Z,89.54
2018-02-10T06:36:02.615Z,89.63
2018-02-10T06:37:02.596Z,88.78
2018-02-10T06:38:02.576Z,90.11
2018-02-10T06:39:02.556Z,90.58
2018-02-10T06:40:02.544Z,91.05
2018-02-10T06:41:02.525Z,88.97
2018-02-10T06:42:02.505Z,88.49
2018-02-10T06:43:02.485Z,89.16
2018-02-10T06:44:02.459Z,91.15
2018-02-10T06:45:02.442Z,91.24
2018-02-10T06:46:02.427Z,90.11
2018-02-10T06:47:02.403Z,88.78
2018-02-10T06:48:02.383Z,88.21
2018-02-10T06:49:02.369Z,89.35
2018-02-10T06:50:02.350Z,88.78
2018-02-10T06:51:02.324Z,90.58
2018-02-10T06:52:02.307Z,92.00
2018-02-10T06:53:02.290Z,91.72
2018-02-10T06:54:02.268Z,90.01
2018-02-10T06:55:02.249Z,88.78
2018-02-10T06:56:02.231Z,90.86
2018-02-10T06:57:02.212Z,88.97
2018-02-10T06:58:02.193Z,88.12
2018-02-10T06:59:02.175Z,88.12
2018-02-10T07:00:02.159Z,88.02
2018-02-10T07:01:02.134Z,88.78
2018-02-10T07:02:02.124Z,89.25
2018-02-10T07:03:02.105Z,89.44
2018-02-10T07:04:02.080Z,90.11
2018-02-10T07:05:02.065Z,90.30
2018-02-10T07:06:02.038Z,90.30
2018-02-10T07:07:02.021Z,89.73
2018-02-10T07:08:02.007Z,90.20
2018-02-10T07:09:01.990Z,89.06
2018-02-10T07:10:01.964Z,89.35
2018-02-10T07:11:01.950Z,89.63
2018-02-10T07:12:01.935Z,90.20
2018-02-10T07:13:01.908Z,90.01
2018-02-10T07:14:01.887Z,90.30
2018-02-10T07:15:01.871Z,88.12
2018-02-10T07:16:01.850Z,88.49
2018-02-10T07:17:01.836Z,88.59
2018-02-10T07:18:01.812Z,87.84
2018-02-10T07:19:01.793Z,87.74
2018-02-10T07:20:01.776Z,89.54
2018-02-10T07:21:01.756Z,87.84
2018-02-10T07:22:01.738Z,88.12
2018-02-10T07:23:01.717Z,87.55
2018-02-10T07:24:01.705Z,87.17
2018-02-10T07:25:01.686Z,87.27
2018-02-10T07:26:01.667Z,87.27
2018-02-10T07:27:01.641Z,87.84
2018-02-10T07:28:01.622Z,88.02
2018-02-10T07:29:01.607Z,89.25
2018-02-10T07:30:01.587Z,88.31
2018-02-10T07:31:01.569Z,88.97
2018-02-10T07:32:01.554Z,87.55
2018-02-10T07:33:01.531Z,87.84
2018-02-10T07:34:01.510Z,89.16
2018-02-10T07:35:01.491Z,89.16
2018-02-10T07:36:01.478Z,87.93
2018-02-10T07:37:01.455Z,88.02
2018-02-10T07:38:01.436Z,88.40
2018-02-10T07:39:01.416Z,87.17
2018-02-10T07:40:01.397Z,88.40
2018-02-10T07:41:01.378Z,88.40
2018-02-10T07:42:01.359Z,88.49
2018-02-10T07:43:01.345Z,88.68
2018-02-10T07:44:01.320Z,88.49
2018-02-10T07:45:01.349Z,90.86
2018-02-10T07:46:01.281Z,90.58
2018-02-10T07:47:01.267Z,89.82
2018-02-10T07:48:01.249Z,90.20
2018-02-10T07:49:01.226Z,89.92
2018-02-10T07:50:01.205Z,88.21
2018-02-10T07:51:01.187Z,88.59
2018-02-10T07:52:01.168Z,87.74
2018-02-10T07:53:01.198Z,89.16
2018-02-10T07:54:01.129Z,88.68
2018-02-10T07:55:01.110Z,88.92
2018-02-10T07:56:01.093Z,89.01
2018-02-10T07:57:01.075Z,88.07
2018-02-10T07:58:01.056Z,88.26
2018-02-10T07:59:01.036Z,87.21
2018-02-10T08:00:01.020Z,86.46
2018-02-10T08:01:01.005Z,86.08
2018-02-10T08:02:00.982Z,88.17
2018-02-10T08:03:00.966Z,87.31
2018-02-10T08:04:00.942Z,87.21
2018-02-10T08:05:00.926Z,87.02
2018-02-10T08:06:00.905Z,86.46
2018-02-10T08:07:00.897Z,86.74
2018-02-10T08:08:00.869Z,87.31
2018-02-10T08:09:00.854Z,87.50
2018-02-10T08:10:00.837Z,89.96
2018-02-10T08:11:00.818Z,88.82
2018-02-10T08:12:00.795Z,88.54
2018-02-10T08:13:00.780Z,87.40
2018-02-10T08:14:00.756Z,88.26
2018-02-10T08:15:00.739Z,87.02
2018-02-10T08:16:00.720Z,85.61
2018-02-10T08:17:00.704Z,86.36
2018-02-10T08:18:00.683Z,88.17
2018-02-10T08:19:00.665Z,88.26
2018-02-10T08:20:00.647Z,86.08
2018-02-10T08:21:00.634Z,85.51
2018-02-10T08:22:00.609Z,85.32
2018-02-10T08:23:00.648Z,86.46
2018-02-10T08:24:00.582Z,86.27
2018-02-10T08:25:00.554Z,86.18
2018-02-10T08:26:00.535Z,85.23
2018-02-10T08:27:00.518Z,84.94
2018-02-10T08:28:00.498Z,88.07
2018-02-10T08:29:00.485Z,87.59
2018-02-10T08:30:00.461Z,85.13
2018-02-10T08:31:00.446Z,86.46
2018-02-10T08:32:00.425Z,85.70
2018-02-10T08:33:00.410Z,86.46
2018-02-10T08:34:00.388Z,85.89
2018-02-10T08:35:00.371Z,85.99
2018-02-10T08:36:00.353Z,86.74
2018-02-10T08:37:00.340Z,85.61
2018-02-10T08:38:00.316Z,86.27
2018-02-10T08:39:00.300Z,85.61
2018-02-10T08:40:00.281Z,85.80
2018-02-10T08:41:00.264Z,85.42
2018-02-10T08:42:00.245Z,85.61
2018-02-10T08:43:00.229Z,86.65
2018-02-10T08:44:00.207Z,87.40
2018-02-10T08:45:00.191Z,86.18
2018-02-10T08:46:00.176Z,87.12
2018-02-10T08:47:00.150Z,86.27
2018-02-10T08:48:00.132Z,85.42
2018-02-10T08:49:00.122Z,86.65
2018-02-10T08:50:00.098Z,85.04
2018-02-10T08:51:00.082Z,85.55
2018-02-10T08:52:00.070Z,84.66
2018-02-10T08:53:00.044Z,85.13
2018-02-10T08:54:00.029Z,85.89
2018-02-10T08:55:00.010Z,84.47
2018-02-10T08:55:59.990Z,84.38
2018-02-10T08:56:59.975Z,84.19
2018-02-10T08:57:59.957Z,84.47
2018-02-10T08:58:59.933Z,84.09
2018-02-10T08:59:59.924Z,84.09
2018-02-10T09:00:59.904Z,84.85
2018-02-10T09:01:59.880Z,85.23
2018-02-10T09:02:59.861Z,84.99
2018-02-10T09:03:59.843Z,88.02
2018-02-10T09:04:59.831Z,86.12
2018-02-10T09:05:59.811Z,83.75
2018-02-10T09:06:59.793Z,84.04
2018-02-10T09:07:59.777Z,84.13
2018-02-10T09:08:59.757Z,84.23
2018-02-10T09:09:59.739Z,83.75
2018-02-10T09:10:59.717Z,83.85
2018-02-10T09:11:59.702Z,84.23
2018-02-10T09:12:59.687Z,85.65
2018-02-10T09:13:59.663Z,85.27
2018-02-10T09:14:59.655Z,83.75
2018-02-10T09:15:59.631Z,82.90
2018-02-10T09:16:59.617Z,83.09
2018-02-10T09:17:59.593Z,82.33
2018-02-10T09:18:59.574Z,83.28
2018-02-10T09:19:59.563Z,82.81
2018-02-10T09:20:59.542Z,83.09
2018-02-10T09:21:59.520Z,82.90
2018-02-10T09:22:59.504Z,83.37
2018-02-10T09:23:59.493Z,83.75
2018-02-10T09:24:59.480Z,86.41
2018-02-10T09:25:59.456Z,83.94
2018-02-10T09:26:59.438Z,82.71
2018-02-10T09:27:59.421Z,82.52
2018-02-10T09:28:59.399Z,82.52
2018-02-10T09:29:59.379Z,84.32
2018-02-10T09:30:59.361Z,81.76
2018-02-10T09:31:59.347Z,81.71
2018-02-10T09:32:59.330Z,82.28
2018-02-10T09:33:59.313Z,81.52
2018-02-10T09:34:59.296Z,81.81
2018-02-10T09:35:59.284Z,82.56
2018-02-10T09:36:59.261Z,80.95
2018-02-10T09:37:59.249Z,80.57
2018-02-10T09:38:59.228Z,81.05
2018-02-10T09:39:59.213Z,79.44
2018-02-10T09:40:59.194Z,79.53
2018-02-10T09:41:59.179Z,81.14
2018-02-10T09:42:59.157Z,80.10
2018-02-10T09:43:59.140Z,79.00
2018-02-10T09:44:59.126Z,78.30
2018-02-10T09:45:59.112Z,80.76
2018-02-10T09:46:59.095Z,78.77
2018-02-10T09:47:59.073Z,80.43
2018-02-10T09:48:59.056Z,78.53
2018-02-10T09:49:59.043Z,77.29
2018-02-10T09:50:59.030Z,77.77
2018-02-10T09:51:59.012Z,78.34
2018-02-10T09:52:58.991Z,77.11
2018-02-10T09:53:58.970Z,79.28
2018-02-10T09:54:58.954Z,79.57
2018-02-10T09:55:58.938Z,77.96
2018-02-10T09:56:58.927Z,78.24
2018-02-10T09:57:58.903Z,77.77
2018-02-10T09:58:58.897Z,79.19
2018-02-10T09:59:58.874Z,77.01
2018-02-10T10:00:58.855Z,77.58
2018-02-10T10:01:58.838Z,78.81
2018-02-10T10:02:58.823Z,79.76
2018-02-10T10:03:58.806Z,79.28
2018-02-10T10:04:58.797Z,81.75
2018-02-10T10:05:58.771Z,81.18
2018-02-10T10:06:58.757Z,78.05
2018-02-10T10:07:58.742Z,77.77
2018-02-10T10:08:58.722Z,77.77
2018-02-10T10:09:58.708Z,76.54
2018-02-10T10:10:58.689Z,77.96
2018-02-10T10:11:58.679Z,75.68
2018-02-10T10:12:58.657Z,74.45
2018-02-10T10:13:58.642Z,76.03
2018-02-10T10:14:58.629Z,77.96
2018-02-10T10:15:58.609Z,77.58
2018-02-10T10:16:58.599Z,77.96
2018-02-10T10:17:58.580Z,76.73
2018-02-10T10:18:58.555Z,77.29
2018-02-10T10:19:58.539Z,76.54
2018-02-10T10:20:58.527Z,75.96
2018-02-10T10:21:58.505Z,76.54
2018-02-10T10:22:58.489Z,77.11
2018-02-10T10:23:58.474Z,77.29
2018-02-10T10:24:58.458Z,77.48
2018-02-10T10:25:58.444Z,77.58
2018-02-10T10:26:58.422Z,78.05
2018-02-10T10:27:58.406Z,75.21
2018-02-10T10:28:58.395Z,75.40
2018-02-10T10:29:58.373Z,76.25
2018-02-10T10:30:58.358Z,75.87
2018-02-10T10:31:58.345Z,78.53
2018-02-10T10:32:58.324Z,77.58
2018-02-10T10:33:58.310Z,78.53
2018-02-10T10:34:58.290Z,76.92
2018-02-10T10:35:58.282Z,75.68
2018-02-10T10:36:58.259Z,76.92
2018-02-10T10:37:58.240Z,73.88
2018-02-10T10:38:58.225Z,73.79
2018-02-10T10:39:58.208Z,75.59
2018-02-10T10:40:58.198Z,75.96
2018-02-10T10:41:58.181Z,75.96
2018-02-10T10:42:58.164Z,75.21
2018-02-10T10:43:58.144Z,76.15
2018-02-10T10:44:58.126Z,75.31
2018-02-10T10:45:58.163Z,73.79
2018-02-10T10:46:58.101Z,72.27
2018-02-10T10:47:58.083Z,74.54
2018-02-10T10:48:58.073Z,73.12
2018-02-10T10:49:58.043Z,73.50
2018-02-10T10:50:58.035Z,73.12
2018-02-10T10:51:58.013Z,72.84
2018-02-10T10:52:57.996Z,71.51
2018-02-10T10:53:57.980Z,73.41
2018-02-10T10:54:57.966Z,76.06
2018-02-10T10:55:57.947Z,75.78
2018-02-10T10:56:57.930Z,77.20
2018-02-10T10:57:57.919Z,74.54
2018-02-10T10:58:57.897Z,74.54
2018-02-10T10:59:57.883Z,75.11
2018-02-10T11:00:57.872Z,75.02
2018-02-10T11:01:57.851Z,73.97
2018-02-10T11:02:57.833Z,75.68
2018-02-10T11:03:57.817Z,75.21
2018-02-10T11:04:57.801Z,73.69
2018-02-10T11:05:57.785Z,75.21
2018-02-10T11:06:57.773Z,73.79
2018-02-10T11:07:57.751Z,73.97
2018-02-10T11:08:57.734Z,73.97
2018-02-10T11:09:57.719Z,73.69
2018-02-10T11:10:57.702Z,73.31
2018-02-10T11:11:57.693Z,74.45
2018-02-10T11:12:57.677Z,74.07
2018-02-10T11:13:57.659Z,73.97
2018-02-10T11:14:57.642Z,75.11
2018-02-10T11:15:57.622Z,76.01
2018-02-10T11:16:57.611Z,74.30
2018-02-10T11:17:57.590Z,73.16
2018-02-10T11:18:57.581Z,72.49
2018-02-10T11:19:57.564Z,73.12
2018-02-10T11:20:57.547Z,72.45
2018-02-10T11:21:57.526Z,73.12
2018-02-10T11:22:57.510Z,73.88
2018-02-10T11:23:57.493Z,75.59
2018-02-10T11:24:57.478Z,74.07
2018-02-10T11:25:57.461Z,73.12
2018-02-10T11:26:57.449Z,72.27
2018-02-10T11:27:57.430Z,75.40
2018-02-10T11:28:57.421Z,79.38
2018-02-10T11:29:57.399Z,77.77
2018-02-10T11:30:57.382Z,74.07
2018-02-10T11:31:57.367Z,72.45
2018-02-10T11:32:57.355Z,75.02
2018-02-10T11:33:57.333Z,75.78
2018-02-10T11:34:57.315Z,77.01
2018-02-10T11:35:57.300Z,76.25
2018-02-10T11:36:57.290Z,75.40
2018-02-10T11:37:57.268Z,75.49
2018-02-10T11:38:57.260Z,75.31
2018-02-10T11:39:57.236Z,77.58
2018-02-10T11:40:57.227Z,76.82
2018-02-10T11:41:57.203Z,77.77
2018-02-10T11:42:57.186Z,76.06
2018-02-10T11:43:57.181Z,75.11
2018-02-10T11:44:57.154Z,74.92
2018-02-10T11:45:57.140Z,74.83
2018-02-10T11:46:57.122Z,75.59
2018-02-10T11:47:57.112Z,78.72
2018-02-10T11:48:57.095Z,76.92
2018-02-10T11:49:57.074Z,76.15
2018-02-10T11:50:57.059Z,75.21
2018-02-10T11:51:57.041Z,74.83
2018-02-10T11:52:57.025Z,73.03
2018-02-10T11:53:57.008Z,72.55
2018-02-10T11:54:57.000Z,73.22
2018-02-10T11:55:56.997Z,75.96
2018-02-10T11:56:57.007Z,76.06
2018-02-10T11:57:56.948Z,74.54
2018-02-10T11:58:56.929Z,75.02
2018-02-10T11:59:56.911Z,77.48
2018-02-10T12:00:56.903Z,75.11
2018-02-10T12:01:56.878Z,73.12
2018-02-10T12:02:56.868Z,74.26
2018-02-10T12:03:56.851Z,75.02
2018-02-10T12:04:56.835Z,76.63
2018-02-10T12:05:56.814Z,76.54
2018-02-10T12:06:56.795Z,77.96
2018-02-10T12:07:56.788Z,77.48
2018-02-10T12:08:56.763Z,76.82
2018-02-10T12:09:56.745Z,77.58
2018-02-10T12:10:56.734Z,77.11
2018-02-10T12:11:56.712Z,78.62
2018-02-10T12:12:56.702Z,76.54
2018-02-10T12:13:56.679Z,73.41
2018-02-10T12:14:56.664Z,72.84
2018-02-10T12:15:56.652Z,72.17
2018-02-10T12:16:56.637Z,73.97
2018-02-10T12:17:56.612Z,75.87
2018-02-10T12:18:56.597Z,76.54
2018-02-10T12:19:56.581Z,74.07
2018-02-10T12:20:56.565Z,73.69
2018-02-10T12:21:56.555Z,75.96
2018-02-10T12:22:56.530Z,75.59
2018-02-10T12:23:56.514Z,76.15
2018-02-10T12:24:56.498Z,75.49
2018-02-10T12:25:56.486Z,75.31
2018-02-10T12:26:56.471Z,76.54
2018-02-10T12:27:56.450Z,76.63
2018-02-10T12:28:56.435Z,76.54
2018-02-10T12:29:56.417Z,76.63
2018-02-10T12:30:56.398Z,76.34
2018-02-10T12:31:56.384Z,77.58
2018-02-10T12:32:56.367Z,78.43
2018-02-10T12:33:56.348Z,75.59
2018-02-10T12:34:56.335Z,76.25
2018-02-10T12:35:56.323Z,75.87
2018-02-10T12:36:56.303Z,76.44
2018-02-10T12:37:56.284Z,77.48
2018-02-10T12:38:56.268Z,74.92
2018-02-10T12:39:56.249Z,78.15
2018-02-10T12:40:56.233Z,76.25
2018-02-10T12:41:56.217Z,77.48
2018-02-10T12:42:56.202Z,77.86
2018-02-10T12:43:56.188Z,76.63
2018-02-10T12:44:56.168Z,77.11
2018-02-10T12:45:56.168Z,78.43
2018-02-10T12:46:56.132Z,78.62
2018-02-10T12:47:56.119Z,78.34
2018-02-10T12:48:56.100Z,77.77
2018-02-10T12:49:56.091Z,76.06
2018-02-10T12:50:56.065Z,75.87
2018-02-10T12:51:56.049Z,75.31